Time;durP1;ratioP1;P1;durP2;ratioP2;P2;SDS_P1;SDS_P2;PMS_P1;PMS_P2;Temp;Humidity;BMP_temperature;BMP_pressure;BME280_temperature;BME280_humidity;BME280_pressure;Samples;Min_cycle;Max_cycle;Signal;HPM_P1;HPM_P2
2023/11/22 00:02:28;;;;;;;16.87;16.17;;;9.50;99.90;;;;;;5019741;28;20500;-78
2023/11/22 00:04:57;;;;;;;16.90;16.10;;;9.50;99.90;;;;;;5022035;28;20445;-78
2023/11/22 00:07:28;;;;;;;16.13;15.43;;;9.50;99.90;;;;;;5018743;28;20458;-78
2023/11/22 00:09:57;;;;;;;16.70;15.80;;;9.50;99.90;;;;;;5021475;28;20954;-78
2023/11/22 00:12:26;;;;;;;16.47;15.67;;;9.50;1.00;;;;;;5019094;28;20532;-78
2023/11/22 00:14:54;;;;;;;16.93;16.00;;;9.50;99.90;;;;;;5015174;28;20532;-78
2023/11/22 00:17:24;;;;;;;16.30;15.30;;;9.50;56.40;;;;;;5017073;28;20458;-75
2023/11/22 00:19:54;;;;;;;15.97;15.23;;;9.50;1.00;;;;;;5015299;28;20454;-79
2023/11/22 00:22:23;;;;;;;16.60;15.60;;;9.60;99.90;;;;;;5017253;28;20437;-77
2023/11/22 00:24:51;;;;;;;16.77;15.87;;;9.50;99.90;;;;;;5016859;28;20437;-78
2023/11/22 00:27:19;;;;;;;15.43;14.83;;;9.50;12.80;;;;;;5013548;28;20492;-78
2023/11/22 00:29:47;;;;;;;15.47;14.77;;;9.50;40.60;;;;;;5016472;28;20453;-78
2023/11/22 00:32:18;;;;;;;14.30;13.80;;;9.50;39.50;;;;;;5016945;28;20460;-79
2023/11/22 00:34:47;;;;;;;13.90;13.37;;;9.50;99.90;;;;;;5015522;28;20548;-78
2023/11/22 00:37:17;;;;;;;13.20;12.80;;;9.40;99.90;;;;;;5014872;28;20575;-78
2023/11/22 00:39:45;;;;;;;12.80;12.50;;;9.40;99.90;;;;;;5015216;28;20444;-75
2023/11/22 00:42:14;;;;;;;13.50;13.10;;;9.30;29.70;;;;;;5016167;28;21081;-78
2023/11/22 00:44:42;;;;;;;13.90;13.40;;;9.20;99.90;;;;;;5012038;28;22313;-80
2023/11/22 00:47:10;;;;;;;13.20;12.90;;;9.10;1.00;;;;;;5016372;28;20453;-80
2023/11/22 00:49:38;;;;;;;13.40;13.00;;;9.10;1.00;;;;;;5014077;28;20449;-79
2023/11/22 00:52:09;;;;;;;12.53;12.23;;;9.00;1.00;;;;;;5017808;28;20473;-78
2023/11/22 00:54:39;;;;;;;12.87;12.57;;;9.00;1.00;;;;;;5019336;28;20470;-78
2023/11/22 00:57:07;;;;;;;13.30;12.90;;;8.90;99.90;;;;;;5018883;28;20453;-76
2023/11/22 00:59:35;;;;;;;12.87;12.57;;;8.90;1.00;;;;;;5020330;28;20469;-78
2023/11/22 01:02:05;;;;;;;13.07;12.67;;;8.80;1.00;;;;;;5017402;28;20969;-78
2023/11/22 01:04:35;;;;;;;13.47;13.07;;;8.80;1.00;;;;;;5017436;28;20441;-78
2023/11/22 01:07:05;;;;;;;13.40;12.90;;;8.80;1.00;;;;;;5016629;28;20472;-78
2023/11/22 01:09:33;;;;;;;13.20;12.80;;;8.70;1.00;;;;;;5018898;28;20449;-79
2023/11/22 01:12:03;;;;;;;13.30;12.90;;;8.60;1.00;;;;;;5019105;28;20475;-78
2023/11/22 01:14:31;;;;;;;14.40;13.93;;;8.50;1.00;;;;;;5017858;28;20453;-78
2023/11/22 01:16:59;;;;;;;13.50;13.00;;;8.50;1.00;;;;;;5019966;28;20547;-77
2023/11/22 01:19:28;;;;;;;14.07;13.57;;;8.50;99.90;;;;;;5019592;28;20826;-77
2023/11/22 01:21:56;;;;;;;14.50;13.83;;;8.40;99.90;;;;;;5020804;28;20944;-78
2023/11/22 01:24:26;;;;;;;13.20;12.77;;;8.40;1.00;;;;;;5016751;28;20471;-78
2023/11/22 01:26:54;;;;;;;13.93;13.43;;;8.40;99.90;;;;;;5023221;28;20453;-78
2023/11/22 01:29:23;;;;;;;13.77;13.23;;;8.30;99.90;;;;;;5019721;28;20453;-79
2023/11/22 01:31:51;;;;;;;13.40;12.90;;;8.30;99.90;;;;;;5018863;28;20471;-80
2023/11/22 01:34:19;;;;;;;13.90;13.40;;;8.30;99.90;;;;;;5018155;28;20484;-79
2023/11/22 01:36:51;;;;;;;13.27;12.83;;;8.30;99.90;;;;;;5017790;28;20482;-78
2023/11/22 01:39:19;;;;;;;13.30;12.80;;;8.30;16.50;;;;;;5016886;28;20457;-78
2023/11/22 01:41:49;;;;;;;13.23;12.83;;;8.30;84.90;;;;;;5023307;28;20574;-78
2023/11/22 01:44:18;;;;;;;13.00;12.60;;;8.20;57.00;;;;;;5022174;28;20485;-77
2023/11/22 01:46:47;;;;;;;13.13;12.63;;;8.20;1.00;;;;;;5021179;28;20449;-78
2023/11/22 01:49:19;;;;;;;14.10;13.37;;;8.20;1.00;;;;;;5022769;28;20460;-79
2023/11/22 01:51:47;;;;;;;13.10;12.60;;;8.10;1.00;;;;;;5023127;28;20568;-78
2023/11/22 01:54:16;;;;;;;14.40;13.47;;;8.10;1.00;;;;;;5024090;28;20449;-78
2023/11/22 01:56:46;;;;;;;12.90;12.50;;;8.00;1.00;;;;;;5021916;28;20535;-77
2023/11/22 01:59:14;;;;;;;13.43;12.83;;;8.00;1.00;;;;;;5019482;28;20478;-78
2023/11/22 02:01:43;;;;;;;14.00;13.33;;;8.00;1.00;;;;;;5019529;28;20494;-78
2023/11/22 02:04:14;;;;;;;13.43;12.93;;;8.00;1.00;;;;;;5017830;28;20985;-78
2023/11/22 02:06:43;;;;;;;12.70;12.30;;;7.90;1.00;;;;;;5021533;28;20469;-77
2023/11/22 02:09:15;;;;;;;13.30;12.80;;;7.90;1.00;;;;;;5020696;28;20536;-78
2023/11/22 02:11:45;;;;;;;13.40;12.90;;;7.80;1.00;;;;;;5020363;28;20482;-78
2023/11/22 02:14:13;;;;;;;12.57;12.17;;;7.70;99.90;;;;;;5023300;28;20468;-79
2023/11/22 02:16:42;;;;;;;12.77;12.30;;;7.70;1.00;;;;;;5023900;28;20478;-78
2023/11/22 02:19:17;;;;;;;12.67;12.23;;;7.70;99.90;;;;;;5019117;28;20459;-78
2023/11/22 02:21:45;;;;;;;12.30;11.90;;;7.70;99.90;;;;;;5020841;28;20481;-78
2023/11/22 02:24:15;;;;;;;12.13;11.73;;;7.70;99.90;;;;;;5017598;28;20840;-79
2023/11/22 02:26:48;;;;;;;12.83;12.33;;;7.70;99.90;;;;;;5018955;28;20485;-78
2023/11/22 02:29:16;;;;;;;11.90;11.50;;;7.60;99.90;;;;;;5022016;28;20449;-77
2023/11/22 02:31:44;;;;;;;12.17;11.77;;;7.60;99.90;;;;;;5020973;28;22742;-79
2023/11/22 02:34:12;;;;;;;12.57;11.97;;;7.50;99.90;;;;;;5018840;28;21021;-78
2023/11/22 02:36:43;;;;;;;13.07;12.50;;;7.50;99.90;;;;;;5024493;28;20461;-78
2023/11/22 02:39:30;;;;;;;12.87;12.37;;;7.40;99.90;;;;;;5016970;28;20448;-78
2023/11/22 02:41:58;;;;;;;12.20;11.80;;;7.40;99.90;;;;;;5017556;28;20472;-78
2023/11/22 02:44:25;;;;;;;12.07;11.67;;;7.50;99.90;;;;;;5016278;28;20546;-77
2023/11/22 02:46:53;;;;;;;11.80;11.40;;;7.40;97.40;;;;;;5016468;28;20453;-76
2023/11/22 02:49:22;;;;;;;12.27;11.77;;;7.30;12.80;;;;;;5015313;28;20462;-78
2023/11/22 02:51:50;;;;;;;12.57;12.10;;;7.30;1.00;;;;;;5016536;28;21022;-80
2023/11/22 02:54:19;;;;;;;11.93;11.53;;;7.20;1.00;;;;;;5020007;28;20460;-79
2023/11/22 02:56:48;;;;;;;12.50;12.00;;;7.20;1.00;;;;;;5023497;28;20490;-79
2023/11/22 02:59:16;;;;;;;12.27;11.60;;;7.20;6.50;;;;;;5016689;28;20446;-78
2023/11/22 03:01:45;;;;;;;11.77;11.30;;;7.10;1.00;;;;;;5021727;28;20500;-78
2023/11/22 03:04:14;;;;;;;11.80;11.30;;;7.10;1.00;;;;;;5022160;28;20449;-81
2023/11/22 03:06:42;;;;;;;11.10;10.70;;;7.10;6.40;;;;;;5018830;28;20453;-80
2023/11/22 03:09:10;;;;;;;11.90;11.40;;;7.10;1.00;;;;;;5020311;28;20792;-79
2023/11/22 03:11:38;;;;;;;11.33;10.87;;;7.10;1.00;;;;;;5019331;28;20492;-78
2023/11/22 03:14:08;;;;;;;12.20;11.60;;;7.10;1.00;;;;;;5017756;28;20449;-80
2023/11/22 03:16:40;;;;;;;11.87;11.37;;;7.10;1.00;;;;;;5015835;28;20478;-79
2023/11/22 03:19:08;;;;;;;11.63;11.13;;;7.10;1.00;;;;;;5018050;28;20990;-80
2023/11/22 03:21:36;;;;;;;11.33;10.77;;;7.00;1.00;;;;;;5016116;28;20492;-81
2023/11/22 03:24:05;;;;;;;11.57;10.97;;;7.00;1.00;;;;;;5014820;28;20464;-81
2023/11/22 03:26:34;;;;;;;11.40;11.00;;;7.00;9.30;;;;;;5016737;28;20441;-80
2023/11/22 03:29:02;;;;;;;11.10;10.70;;;6.90;28.40;;;;;;5015948;28;20587;-78
2023/11/22 03:31:31;;;;;;;12.50;12.00;;;6.90;99.60;;;;;;5014960;28;20500;-78
2023/11/22 03:33:59;;;;;;;11.50;11.00;;;7.00;29.80;;;;;;5015406;28;21114;-78
2023/11/22 03:36:28;;;;;;;11.57;11.10;;;6.90;1.00;;;;;;5015395;28;20480;-79
2023/11/22 03:38:56;;;;;;;12.30;11.70;;;6.90;1.00;;;;;;5015277;28;20476;-79
2023/11/22 03:41:24;;;;;;;12.00;11.50;;;6.90;7.70;;;;;;5016481;28;20480;-80
2023/11/22 03:43:52;;;;;;;11.30;10.90;;;6.90;2.70;;;;;;5015369;28;20453;-77
2023/11/22 03:46:21;;;;;;;11.43;11.03;;;6.80;19.00;;;;;;5014494;28;20966;-78
2023/11/22 03:48:50;;;;;;;12.53;11.93;;;6.80;1.00;;;;;;5019891;28;20461;-79
2023/11/22 03:51:18;;;;;;;11.70;11.10;;;6.70;11.70;;;;;;5020213;28;20476;-79
2023/11/22 03:53:46;;;;;;;12.00;11.47;;;6.80;33.70;;;;;;5024613;28;20462;-77
2023/11/22 03:56:14;;;;;;;11.67;11.17;;;6.70;1.00;;;;;;5018773;28;20483;-79
2023/11/22 03:58:44;;;;;;;12.57;12.00;;;6.70;1.00;;;;;;5017155;28;20449;-77
2023/11/22 04:01:12;;;;;;;12.07;11.47;;;6.70;1.00;;;;;;5025712;28;20585;-78
2023/11/22 04:03:41;;;;;;;12.60;11.97;;;6.80;11.20;;;;;;5021441;28;20553;-78
2023/11/22 04:06:11;;;;;;;12.77;11.97;;;6.70;1.00;;;;;;5018127;28;20442;-78
2023/11/22 04:08:39;;;;;;;11.63;11.10;;;6.70;1.00;;;;;;5018275;28;20459;-77
2023/11/22 04:11:07;;;;;;;12.17;11.60;;;6.70;1.00;;;;;;5016382;28;20470;-76
2023/11/22 04:13:35;;;;;;;11.57;11.03;;;6.60;38.90;;;;;;5018351;28;20521;-77
2023/11/22 04:16:04;;;;;;;12.60;12.00;;;6.70;51.20;;;;;;5018812;28;21012;-79
2023/11/22 04:18:33;;;;;;;11.73;11.23;;;6.70;20.10;;;;;;5016693;28;20461;-77
2023/11/22 04:21:01;;;;;;;12.37;11.67;;;6.60;30.90;;;;;;5018230;28;20476;-77
2023/11/22 04:23:31;;;;;;;12.00;11.50;;;6.70;47.70;;;;;;5021356;28;20527;-78
2023/11/22 04:25:59;;;;;;;11.17;10.77;;;6.80;17.00;;;;;;5016957;28;20466;-77
2023/11/22 04:28:29;;;;;;;11.37;10.77;;;6.70;16.90;;;;;;5022489;28;20467;-78
2023/11/22 04:30:58;;;;;;;11.97;11.37;;;6.80;1.00;;;;;;5021781;28;20470;-79
2023/11/22 04:33:27;;;;;;;11.67;11.17;;;6.70;1.00;;;;;;5021529;28;20456;-77
2023/11/22 04:35:56;;;;;;;12.23;11.73;;;6.60;1.00;;;;;;5021567;28;20551;-78
2023/11/22 04:38:25;;;;;;;11.23;10.83;;;6.60;1.00;;;;;;5028073;28;20483;-79
2023/11/22 04:40:54;;;;;;;11.93;11.40;;;6.60;1.00;;;;;;5025924;28;20481;-77
2023/11/22 04:43:23;;;;;;;11.60;11.10;;;6.60;1.00;;;;;;5020364;28;20449;-78
2023/11/22 04:45:51;;;;;;;11.43;10.97;;;6.60;1.00;;;;;;5020914;28;20464;-78
2023/11/22 04:48:19;;;;;;;11.50;10.90;;;6.60;1.00;;;;;;5022628;28;21052;-78
2023/11/22 04:50:47;;;;;;;11.77;11.17;;;6.60;8.70;;;;;;5025795;28;20845;-78
2023/11/22 04:53:16;;;;;;;11.53;11.03;;;6.70;5.60;;;;;;5019887;28;20448;-78
2023/11/22 04:55:48;;;;;;;11.80;11.30;;;6.60;27.10;;;;;;5021900;28;20475;-78
2023/11/22 04:58:18;;;;;;;11.90;11.33;;;6.70;34.30;;;;;;5024000;28;20480;-79
2023/11/22 05:00:46;;;;;;;12.67;12.17;;;6.70;50.50;;;;;;5021493;28;20477;-79
2023/11/22 05:03:14;;;;;;;12.03;11.53;;;6.60;41.70;;;;;;5016600;28;20472;-79
2023/11/22 05:05:42;;;;;;;12.13;11.70;;;6.70;90.30;;;;;;5024587;28;20441;-78
2023/11/22 05:08:11;;;;;;;12.30;11.40;;;6.70;99.90;;;;;;5024587;28;20512;-79
2023/11/22 05:10:39;;;;;;;11.30;10.80;;;6.70;99.90;;;;;;5019912;28;20488;-78
2023/11/22 05:13:07;;;;;;;11.70;11.20;;;6.80;51.60;;;;;;5020803;28;20496;-79
2023/11/22 05:15:36;;;;;;;12.00;11.40;;;6.80;51.40;;;;;;5018550;28;20462;-79
2023/11/22 05:18:07;;;;;;;12.23;11.60;;;6.70;39.70;;;;;;5018198;28;20480;-78
2023/11/22 05:20:35;;;;;;;11.80;11.40;;;6.70;22.90;;;;;;5020698;28;20534;-79
2023/11/22 05:23:04;;;;;;;12.07;11.57;;;6.60;12.10;;;;;;5023913;28;20465;-77
2023/11/22 05:25:32;;;;;;;12.20;11.70;;;6.70;39.40;;;;;;5019646;28;21625;-77
2023/11/22 05:28:01;;;;;;;11.87;11.17;;;6.70;1.00;;;;;;5021319;28;20968;-78
2023/11/22 05:30:29;;;;;;;11.57;11.07;;;6.70;1.00;;;;;;5023715;28;20497;-76
2023/11/22 05:32:59;;;;;;;12.53;12.03;;;6.60;1.00;;;;;;5021358;28;20975;-78
2023/11/22 05:35:27;;;;;;;11.23;10.67;;;6.50;1.00;;;;;;5020973;28;21171;-78
2023/11/22 05:37:57;;;;;;;11.17;10.67;;;6.60;1.00;;;;;;5023001;28;20481;-78
2023/11/22 05:40:25;;;;;;;11.20;10.70;;;6.60;1.00;;;;;;5019766;28;20581;-79
2023/11/22 05:42:53;;;;;;;11.20;10.70;;;6.60;1.00;;;;;;5022451;28;20820;-80
2023/11/22 05:45:21;;;;;;;10.87;10.37;;;6.60;1.00;;;;;;5020506;28;20453;-80
2023/11/22 05:47:49;;;;;;;13.40;12.53;;;6.60;1.00;;;;;;5019311;28;20437;-79
2023/11/22 05:50:19;;;;;;;9.80;9.40;;;6.70;1.00;;;;;;5016091;28;20837;-78
2023/11/22 05:52:47;;;;;;;11.23;10.57;;;6.60;1.00;;;;;;5020573;28;20442;-77
2023/11/22 05:55:18;;;;;;;11.20;10.77;;;6.60;1.00;;;;;;5023200;28;20507;-80
2023/11/22 05:57:46;;;;;;;11.00;10.57;;;6.60;1.00;;;;;;5021755;28;20529;-78
2023/11/22 06:00:15;;;;;;;10.77;10.37;;;6.60;1.00;;;;;;5023697;28;20472;-78
2023/11/22 06:02:43;;;;;;;10.70;10.30;;;6.60;1.00;;;;;;5019321;28;20469;-79
2023/11/22 06:05:12;;;;;;;10.77;10.00;;;6.60;1.00;;;;;;5015888;28;20471;-78
2023/11/22 06:07:41;;;;;;;11.03;10.43;;;6.60;1.00;;;;;;5021086;28;20504;-77
2023/11/22 06:10:10;;;;;;;11.60;11.00;;;6.60;1.00;;;;;;5017788;28;20458;-76
2023/11/22 06:12:38;;;;;;;10.70;10.30;;;6.60;1.00;;;;;;5024306;28;20472;-78
2023/11/22 06:15:07;;;;;;;11.33;10.83;;;6.60;1.00;;;;;;5019689;28;20450;-78
2023/11/22 06:17:36;;;;;;;11.67;10.97;;;6.50;1.00;;;;;;5022332;28;20476;-80
2023/11/22 06:20:06;;;;;;;11.73;11.13;;;6.60;1.00;;;;;;5017522;28;20812;-77
2023/11/22 06:22:34;;;;;;;11.97;11.47;;;6.60;1.00;;;;;;5020230;28;20590;-77
2023/11/22 06:25:05;;;;;;;11.17;10.67;;;6.60;1.00;;;;;;5020343;28;20958;-79
2023/11/22 06:27:33;;;;;;;11.47;10.97;;;6.50;1.00;;;;;;5020257;28;20481;-77
2023/11/22 06:30:02;;;;;;;11.40;10.80;;;6.60;1.00;;;;;;5018165;28;20456;-77
2023/11/22 06:32:31;;;;;;;11.93;11.33;;;6.50;1.00;;;;;;5019494;28;20453;-78
2023/11/22 06:34:59;;;;;;;12.17;11.40;;;6.50;1.00;;;;;;5019764;28;20464;-78
2023/11/22 06:37:27;;;;;;;11.53;10.93;;;6.50;1.00;;;;;;5018539;28;20564;-77
2023/11/22 06:39:57;;;;;;;11.80;11.10;;;6.50;1.00;;;;;;5021620;28;20509;-77
2023/11/22 06:42:28;;;;;;;10.07;9.47;;;6.40;1.00;;;;;;5021497;28;20560;-78
2023/11/22 06:44:58;;;;;;;10.03;9.70;;;6.30;1.00;;;;;;5019446;28;20449;-77
2023/11/22 06:47:26;;;;;;;10.40;9.80;;;6.30;1.00;;;;;;5025360;28;20556;-77
2023/11/22 06:49:55;;;;;;;10.60;9.90;;;6.40;1.00;;;;;;5017217;28;20455;-80
2023/11/22 06:52:23;;;;;;;10.83;10.30;;;6.40;1.00;;;;;;5021368;28;20473;-78
2023/11/22 06:54:51;;;;;;;10.37;9.97;;;6.30;1.00;;;;;;5019586;28;20456;-78
2023/11/22 06:57:22;;;;;;;10.90;10.40;;;6.30;1.00;;;;;;5019614;28;20448;-79
2023/11/22 06:59:51;;;;;;;9.80;9.50;;;6.30;1.00;;;;;;5019174;28;21071;-79
2023/11/22 07:02:20;;;;;;;11.10;10.50;;;6.30;1.00;;;;;;5020560;28;20492;-77
2023/11/22 07:04:48;;;;;;;10.77;10.07;;;6.30;1.00;;;;;;5018998;28;20468;-78
2023/11/22 07:07:16;;;;;;;10.20;9.80;;;6.20;1.00;;;;;;5020565;28;20538;-78
2023/11/22 07:09:46;;;;;;;11.23;10.57;;;6.30;1.00;;;;;;5020947;28;20465;-77
2023/11/22 07:12:14;;;;;;;9.80;9.50;;;6.30;1.00;;;;;;5021355;28;20473;-78
2023/11/22 07:14:43;;;;;;;10.50;9.90;;;6.20;1.00;;;;;;5017631;28;20484;-78
2023/11/22 07:17:12;;;;;;;9.90;9.40;;;6.20;1.00;;;;;;5022285;28;20459;-80
2023/11/22 07:19:46;;;;;;;9.50;9.10;;;6.20;1.00;;;;;;5022486;28;21007;-79
2023/11/22 07:22:17;;;;;;;10.47;9.87;;;6.20;1.00;;;;;;5019435;28;20480;-78
2023/11/22 07:24:45;;;;;;;10.60;10.10;;;6.30;1.00;;;;;;5019241;28;20446;-77
2023/11/22 07:27:13;;;;;;;10.20;9.70;;;6.30;1.00;;;;;;5018330;28;20453;-77
2023/11/22 07:29:42;;;;;;;10.20;9.80;;;6.30;1.00;;;;;;5020536;28;20453;-77
2023/11/22 07:32:12;;;;;;;10.10;9.70;;;6.30;1.00;;;;;;5021252;28;20474;-77
2023/11/22 07:34:41;;;;;;;10.67;10.20;;;6.30;1.00;;;;;;5014859;28;20465;-78
2023/11/22 07:37:09;;;;;;;10.50;10.00;;;6.30;1.00;;;;;;5017212;28;20467;-79
2023/11/22 07:39:39;;;;;;;11.13;10.37;;;6.40;1.00;;;;;;5019003;28;20482;-78
2023/11/22 07:42:08;;;;;;;10.10;9.60;;;6.30;1.00;;;;;;5017011;28;20568;-77
2023/11/22 07:44:37;;;;;;;10.57;10.07;;;6.30;1.00;;;;;;5018064;28;21294;-79
2023/11/22 07:47:09;;;;;;;10.77;10.20;;;6.30;1.00;;;;;;5019180;28;20457;-78
2023/11/22 07:49:41;;;;;;;10.40;10.00;;;6.30;1.00;;;;;;5017338;28;20518;-78
2023/11/22 07:52:13;;;;;;;9.87;9.53;;;6.20;1.00;;;;;;5018503;28;21176;-78
2023/11/22 07:54:42;;;;;;;9.67;9.20;;;6.20;1.00;;;;;;5018992;28;20452;-77
2023/11/22 07:57:10;;;;;;;10.30;9.70;;;6.20;1.00;;;;;;5015136;28;20557;-78
2023/11/22 07:59:38;;;;;;;9.33;8.97;;;6.10;1.00;;;;;;5019930;28;20476;-78
2023/11/22 08:02:10;;;;;;;9.87;9.40;;;6.20;1.00;;;;;;5018165;28;20520;-77
2023/11/22 08:04:40;;;;;;;9.20;8.90;;;6.20;1.00;;;;;;5021913;28;20477;-79
2023/11/22 08:07:11;;;;;;;10.47;9.93;;;6.20;1.00;;;;;;5021240;28;20989;-76
2023/11/22 08:09:39;;;;;;;9.87;9.37;;;6.10;1.00;;;;;;5020794;28;20461;-78
2023/11/22 08:12:08;;;;;;;10.67;10.17;;;6.20;1.00;;;;;;5017740;28;20580;-77
2023/11/22 08:14:36;;;;;;;14.60;13.60;;;6.10;1.00;;;;;;5020822;28;20977;-77
2023/11/22 08:17:05;;;;;;;10.97;10.23;;;6.10;99.90;;;;;;5021079;28;20507;-76
2023/11/22 08:19:34;;;;;;;10.47;10.00;;;6.00;99.90;;;;;;5021757;28;20469;-78
2023/11/22 08:22:03;;;;;;;11.03;10.53;;;6.00;99.90;;;;;;5020847;28;20476;-77
2023/11/22 08:24:33;;;;;;;10.00;9.63;;;6.00;99.90;;;;;;5020649;28;20462;-77
2023/11/22 08:27:03;;;;;;;16.40;15.27;;;6.00;99.90;;;;;;5019432;28;20459;-77
2023/11/22 08:29:31;;;;;;;14.67;13.70;;;6.00;99.90;;;;;;5020665;28;20453;-77
2023/11/22 08:32:00;;;;;;;11.17;10.57;;;6.00;99.90;;;;;;5016317;28;21271;-76
2023/11/22 08:34:28;;;;;;;10.73;10.13;;;5.90;99.90;;;;;;5023167;28;20453;-76
2023/11/22 08:36:56;;;;;;;13.67;12.57;;;5.90;99.90;;;;;;5021358;28;20455;-76
2023/11/22 08:39:25;;;;;;;12.23;11.47;;;5.90;99.90;;;;;;5019464;28;20473;-78
2023/11/22 08:41:55;;;;;;;14.47;13.37;;;5.90;99.90;;;;;;5016883;28;21064;-79
2023/11/22 08:44:23;;;;;;;9.17;8.77;;;5.80;99.90;;;;;;5020330;28;20461;-79
2023/11/22 08:46:51;;;;;;;9.63;9.30;;;5.90;99.90;;;;;;5018525;28;20467;-76
2023/11/22 08:49:20;;;;;;;8.93;8.63;;;5.80;99.90;;;;;;5020247;28;20989;-77
2023/11/22 08:51:49;;;;;;;9.20;8.80;;;5.80;99.90;;;;;;5020541;28;20472;-77
2023/11/22 08:54:17;;;;;;;9.93;9.13;;;5.80;99.90;;;;;;5021746;28;20452;-77
2023/11/22 08:56:46;;;;;;;9.73;9.23;;;5.80;99.90;;;;;;5020601;28;20460;-78
2023/11/22 08:59:16;;;;;;;9.63;9.13;;;5.90;99.90;;;;;;5021333;28;20476;-79
2023/11/22 09:01:45;;;;;;;9.33;8.70;;;6.00;99.90;;;;;;5018574;28;20521;-77
2023/11/22 09:04:13;;;;;;;9.20;8.80;;;6.00;99.90;;;;;;5024719;28;20456;-77
2023/11/22 09:06:43;;;;;;;9.60;9.20;;;6.00;99.90;;;;;;5023871;28;20503;-78
2023/11/22 09:09:15;;;;;;;9.47;9.07;;;6.00;99.90;;;;;;5017529;28;20577;-78
2023/11/22 09:11:43;;;;;;;9.87;9.43;;;6.00;99.90;;;;;;5019441;28;20466;-79
2023/11/22 09:14:12;;;;;;;9.10;8.80;;;6.00;99.90;;;;;;5020810;28;20548;-78
2023/11/22 09:16:42;;;;;;;9.00;8.60;;;6.00;99.90;;;;;;5019909;28;20453;-77
2023/11/22 09:19:11;;;;;;;9.70;9.27;;;6.00;99.90;;;;;;5019365;28;20480;-78
2023/11/22 09:21:39;;;;;;;8.80;8.43;;;6.00;99.90;;;;;;5021601;28;20509;-78
2023/11/22 09:24:08;;;;;;;9.17;8.77;;;6.00;99.90;;;;;;5019448;28;20589;-78
2023/11/22 09:26:36;;;;;;;9.80;9.40;;;6.00;99.90;;;;;;5021360;28;20453;-76
2023/11/22 09:29:04;;;;;;;9.00;8.60;;;6.00;99.90;;;;;;5021550;28;20459;-79
2023/11/22 09:31:32;;;;;;;9.20;8.80;;;6.00;99.90;;;;;;5020386;28;20485;-76
2023/11/22 09:34:03;;;;;;;9.77;9.23;;;5.90;99.90;;;;;;5022662;28;21021;-76
2023/11/22 09:36:33;;;;;;;8.50;8.20;;;6.00;99.90;;;;;;5021173;28;20556;-76
2023/11/22 09:39:02;;;;;;;8.70;8.40;;;6.00;99.90;;;;;;5021346;28;20515;-77
2023/11/22 09:41:33;;;;;;;9.10;8.70;;;5.90;99.90;;;;;;5020267;28;20476;-78
2023/11/22 09:44:01;;;;;;;9.10;8.70;;;6.00;99.90;;;;;;5016950;28;20568;-75
2023/11/22 09:46:30;;;;;;;9.03;8.63;;;5.90;99.90;;;;;;5020786;28;20448;-76
2023/11/22 09:48:59;;;;;;;9.97;9.30;;;5.90;99.90;;;;;;5021077;28;20527;-76
2023/11/22 09:51:32;;;;;;;9.10;8.70;;;6.00;99.90;;;;;;5021645;28;20479;-76
2023/11/22 09:54:04;;;;;;;8.77;8.33;;;5.90;99.90;;;;;;5020567;28;20489;-77
2023/11/22 09:56:33;;;;;;;9.10;8.60;;;5.90;99.90;;;;;;5022168;28;20476;-75
2023/11/22 09:59:04;;;;;;;9.13;8.27;;;6.00;99.90;;;;;;5020713;28;20538;-75
2023/11/22 10:01:33;;;;;;;9.40;8.90;;;6.00;99.90;;;;;;5019466;28;20485;-76
2023/11/22 10:04:02;;;;;;;9.47;8.87;;;5.90;99.90;;;;;;5020450;28;20450;-76
2023/11/22 10:06:34;;;;;;;9.20;8.70;;;6.10;99.90;;;;;;5020816;28;20457;-76
2023/11/22 10:09:07;;;;;;;9.10;8.70;;;6.10;99.90;;;;;;5023307;28;20446;-76
2023/11/22 10:11:37;;;;;;;9.23;8.90;;;6.10;99.90;;;;;;5016766;28;20492;-77
2023/11/22 10:14:06;;;;;;;10.00;9.50;;;6.10;99.90;;;;;;5020139;28;20489;-79
2023/11/22 10:16:34;;;;;;;10.23;9.73;;;6.00;99.90;;;;;;5019269;28;20489;-79
2023/11/22 10:19:06;;;;;;;10.23;9.63;;;6.10;99.90;;;;;;5020322;28;20821;-78
2023/11/22 10:21:37;;;;;;;10.50;9.90;;;6.20;99.90;;;;;;5018367;28;21236;-76
2023/11/22 10:24:09;;;;;;;10.80;10.30;;;6.10;99.90;;;;;;5022119;28;20456;-77
2023/11/22 10:26:37;;;;;;;10.43;9.73;;;6.10;99.90;;;;;;5019373;28;20507;-76
2023/11/22 10:29:08;;;;;;;9.77;9.20;;;6.10;99.90;;;;;;5017033;28;20465;-77
2023/11/22 10:31:36;;;;;;;9.37;8.97;;;6.10;99.90;;;;;;5019780;28;21032;-76
2023/11/22 10:34:05;;;;;;;9.57;9.13;;;6.10;99.90;;;;;;5020891;28;20445;-75
2023/11/22 10:36:33;;;;;;;9.93;9.40;;;6.20;99.90;;;;;;5024665;28;20535;-77
2023/11/22 10:39:03;;;;;;;9.60;9.00;;;6.10;99.90;;;;;;5018760;28;20467;-80
2023/11/22 10:41:38;;;;;;;9.17;8.77;;;6.10;99.90;;;;;;5018677;28;20506;-76
2023/11/22 10:44:08;;;;;;;9.10;8.70;;;6.10;99.90;;;;;;5016519;28;20507;-77
2023/11/22 10:46:37;;;;;;;9.30;8.90;;;6.10;99.90;;;;;;5020539;28;20965;-77
2023/11/22 10:49:06;;;;;;;9.27;8.87;;;6.10;99.90;;;;;;5021888;28;20505;-76
2023/11/22 10:51:41;;;;;;;9.70;9.20;;;6.00;99.90;;;;;;5020790;28;20473;-76
2023/11/22 10:54:12;;;;;;;9.73;9.23;;;6.10;99.90;;;;;;5019309;28;20458;-76
2023/11/22 10:56:42;;;;;;;9.77;9.17;;;6.10;99.90;;;;;;5018592;28;20547;-77
2023/11/22 10:59:13;;;;;;;10.37;9.77;;;6.10;99.90;;;;;;5014728;28;20962;-76
2023/11/22 11:01:51;;;;;;;9.50;9.00;;;6.20;99.90;;;;;;5017227;28;20481;-75
2023/11/22 11:04:28;;;;;;;8.90;8.50;;;6.20;99.90;;;;;;5017618;28;20481;-76
2023/11/22 11:06:57;;;;;;;9.77;9.27;;;6.20;99.90;;;;;;5017286;28;20464;-77
2023/11/22 11:09:32;;;;;;;9.60;9.20;;;6.20;99.90;;;;;;5017176;28;20453;-79
2023/11/22 11:12:02;;;;;;;8.77;8.37;;;6.20;99.90;;;;;;5020844;28;20519;-79
2023/11/22 11:14:36;;;;;;;10.33;9.63;;;6.20;99.90;;;;;;5016313;28;21000;-77
2023/11/22 11:17:05;;;;;;;9.70;9.10;;;6.20;99.90;;;;;;5016501;28;20551;-79
2023/11/22 11:19:33;;;;;;;9.67;9.27;;;6.20;99.90;;;;;;5021584;28;20453;-78
2023/11/22 11:22:04;;;;;;;10.03;9.43;;;6.30;99.90;;;;;;5019229;28;20546;-77
2023/11/22 11:24:39;;;;;;;10.40;9.90;;;6.20;99.90;;;;;;5019495;28;20461;-76
2023/11/22 11:27:09;;;;;;;50.03;26.70;;;6.20;99.90;;;;;;5015988;28;20867;-75
2023/11/22 11:29:41;;;;;;;15.20;12.67;;;6.10;99.90;;;;;;5016758;28;20461;-76
2023/11/22 11:32:14;;;;;;;10.43;9.73;;;6.10;99.90;;;;;;5020604;28;20469;-76
2023/11/22 11:34:50;;;;;;;10.20;9.70;;;6.20;99.90;;;;;;5017237;28;20927;-75
2023/11/22 11:37:20;;;;;;;10.13;9.73;;;6.20;99.90;;;;;;5015295;28;20449;-75
2023/11/22 11:39:49;;;;;;;10.20;9.53;;;6.20;99.90;;;;;;5016965;28;20514;-79
2023/11/22 11:42:18;;;;;;;9.80;9.20;;;6.20;99.90;;;;;;5022174;28;20863;-76
2023/11/22 11:45:05;;;;;;;9.47;8.93;;;6.20;99.90;;;;;;5016719;28;20476;-77
2023/11/22 11:47:34;;;;;;;10.00;9.43;;;6.20;99.90;;;;;;5019308;28;20450;-76
2023/11/22 11:50:04;;;;;;;9.80;9.30;;;6.30;99.90;;;;;;5020582;28;20483;-75
2023/11/22 11:52:33;;;;;;;9.50;9.00;;;6.30;99.90;;;;;;5017315;28;20465;-76
2023/11/22 11:55:02;;;;;;;10.37;9.70;;;6.30;99.90;;;;;;5015600;28;20463;-76
2023/11/22 11:57:32;;;;;;;10.27;9.60;;;6.20;99.90;;;;;;5022448;28;20456;-75
2023/11/22 12:00:02;;;;;;;10.60;9.80;;;6.30;99.90;;;;;;5018421;28;20457;-76
2023/11/22 12:02:30;;;;;;;12.20;11.50;;;6.30;99.90;;;;;;5019909;28;20535;-75
2023/11/22 12:04:58;;;;;;;10.07;9.53;;;6.30;99.90;;;;;;5022124;28;20464;-77
2023/11/22 12:07:27;;;;;;;10.60;10.00;;;6.20;99.90;;;;;;5018846;28;20962;-77
2023/11/22 12:09:57;;;;;;;10.70;10.10;;;6.20;99.90;;;;;;5016219;28;20461;-76
2023/11/22 12:12:28;;;;;;;10.93;10.03;;;6.20;99.90;;;;;;5016351;28;20473;-78
2023/11/22 12:14:57;;;;;;;11.23;10.53;;;6.10;99.90;;;;;;5016416;28;20461;-79
2023/11/22 12:17:27;;;;;;;10.87;10.20;;;6.20;99.90;;;;;;5016511;28;20460;-78
2023/11/22 12:20:11;;;;;;;11.53;10.83;;;6.20;99.90;;;;;;5019134;28;20544;-76
2023/11/22 12:22:40;;;;;;;10.80;10.20;;;6.20;99.90;;;;;;5022324;28;20479;-77
2023/11/22 12:25:09;;;;;;;11.53;10.83;;;6.20;99.90;;;;;;5016971;28;20461;-76
2023/11/22 12:27:44;;;;;;;11.20;10.50;;;6.10;99.90;;;;;;5015382;28;20468;-76
2023/11/22 12:30:29;;;;;;;11.83;11.13;;;6.10;99.90;;;;;;5015527;28;20481;-75
2023/11/22 12:32:57;;;;;;;11.60;10.87;;;6.20;99.90;;;;;;5014167;28;20507;-78
2023/11/22 12:35:26;;;;;;;11.20;10.57;;;6.20;99.90;;;;;;5017705;28;20897;-76
2023/11/22 12:37:55;;;;;;;11.17;10.57;;;6.20;99.90;;;;;;5016803;28;20461;-77
2023/11/22 12:40:23;;;;;;;10.40;9.83;;;6.10;99.90;;;;;;5018828;28;20452;-77
2023/11/22 12:42:53;;;;;;;11.30;10.70;;;6.10;99.90;;;;;;5017298;28;20492;-76
2023/11/22 12:45:23;;;;;;;10.93;10.23;;;6.10;99.90;;;;;;5015125;28;20465;-77
2023/11/22 12:47:52;;;;;;;10.63;10.03;;;6.10;99.90;;;;;;5021352;28;20457;-78
2023/11/22 12:50:38;;;;;;;10.63;9.93;;;6.00;99.90;;;;;;5018699;28;20450;-77
2023/11/22 12:53:11;;;;;;;10.77;10.03;;;6.10;99.90;;;;;;5019474;28;20886;-78
2023/11/22 12:55:44;;;;;;;10.43;9.83;;;6.10;99.90;;;;;;5017337;28;20462;-79
2023/11/22 12:58:14;;;;;;;13.37;12.30;;;6.10;99.90;;;;;;5019017;28;20889;-79